Time;durP1;ratioP1;P1;durP2;ratioP2;P2;SDS_P1;SDS_P2;PMS_P1;PMS_P2;Temp;Humidity;BMP_temperature;BMP_pressure;BME280_temperature;BME280_humidity;BME280_pressure;Samples;Min_cycle;Max_cycle;Signal;HPM_P1;HPM_P2
2023/08/27 00:00:13;;;;;;;12.17;8.00;;;16.20;99.90;;;;;;5087689;28;20662;-74
2023/08/27 00:02:39;;;;;;;9.43;8.10;;;16.20;99.90;;;;;;5089706;28;20659;-74
2023/08/27 00:05:09;;;;;;;9.47;8.60;;;16.40;99.90;;;;;;5089840;28;20623;-73
2023/08/27 00:07:37;;;;;;;8.60;7.70;;;16.40;99.90;;;;;;5089567;28;20666;-74
2023/08/27 00:10:07;;;;;;;8.37;7.50;;;16.40;99.90;;;;;;5088701;28;21060;-74
2023/08/27 00:12:34;;;;;;;10.97;9.40;;;16.50;99.90;;;;;;5086754;28;21296;-74
2023/08/27 00:15:01;;;;;;;10.17;9.27;;;16.50;99.90;;;;;;5089813;28;20734;-74
2023/08/27 00:17:28;;;;;;;11.00;9.27;;;16.60;99.90;;;;;;5090262;28;20633;-74
2023/08/27 00:19:55;;;;;;;15.07;9.03;;;16.60;99.90;;;;;;5088862;28;20652;-74
2023/08/27 00:22:22;;;;;;;13.10;9.67;;;16.60;99.90;;;;;;5090232;28;20640;-74
2023/08/27 00:24:50;;;;;;;14.33;10.10;;;16.50;99.90;;;;;;5088905;28;20635;-74
2023/08/27 00:27:17;;;;;;;13.20;10.30;;;16.50;99.90;;;;;;5089323;28;20674;-74
2023/08/27 00:29:43;;;;;;;15.60;10.80;;;16.50;99.90;;;;;;5089143;28;20637;-74
2023/08/27 00:32:10;;;;;;;14.23;11.10;;;16.50;99.90;;;;;;5089631;28;20743;-74
2023/08/27 00:34:37;;;;;;;11.30;9.60;;;16.50;99.90;;;;;;5089722;28;20639;-74
2023/08/27 00:37:04;;;;;;;10.80;9.67;;;16.60;99.90;;;;;;5089404;28;20624;-74
2023/08/27 00:39:31;;;;;;;11.07;9.20;;;16.50;99.90;;;;;;5087909;28;20653;-74
2023/08/27 00:41:59;;;;;;;10.60;9.50;;;16.50;99.90;;;;;;5089245;28;20659;-74
2023/08/27 00:44:27;;;;;;;10.30;9.33;;;16.50;99.90;;;;;;5090109;28;20621;-74
2023/08/27 00:46:54;;;;;;;11.53;9.77;;;16.60;99.90;;;;;;5089113;28;20635;-74
2023/08/27 00:49:21;;;;;;;13.60;11.07;;;16.60;99.90;;;;;;5087906;28;20636;-74
2023/08/27 00:51:48;;;;;;;14.30;10.40;;;16.70;99.90;;;;;;5088400;28;20639;-74
2023/08/27 00:54:15;;;;;;;11.80;9.53;;;16.70;99.90;;;;;;5089106;28;21113;-74
2023/08/27 00:56:44;;;;;;;13.83;10.27;;;16.70;99.90;;;;;;5088124;28;21192;-74
2023/08/27 00:59:13;;;;;;;10.50;9.40;;;16.70;99.90;;;;;;5088138;28;20665;-74
2023/08/27 01:01:40;;;;;;;12.70;9.70;;;16.60;99.90;;;;;;5088749;28;21816;-74
2023/08/27 01:04:07;;;;;;;9.93;7.80;;;16.70;99.90;;;;;;5088177;28;20628;-74
2023/08/27 01:06:35;;;;;;;12.10;8.83;;;16.70;99.90;;;;;;5088415;28;20620;-74
2023/08/27 01:09:09;;;;;;;9.23;7.13;;;16.60;99.90;;;;;;5086945;28;21047;-74
2023/08/27 01:11:46;;;;;;;9.50;8.50;;;16.60;99.90;;;;;;5089286;28;20637;-74
2023/08/27 01:14:17;;;;;;;9.47;8.50;;;16.60;99.90;;;;;;5086005;28;20629;-74
2023/08/27 01:16:47;;;;;;;11.00;9.40;;;16.60;99.90;;;;;;5088812;28;21031;-74
2023/08/27 01:19:16;;;;;;;10.40;8.70;;;16.60;99.90;;;;;;5087356;28;20724;-74
2023/08/27 01:21:45;;;;;;;9.10;7.87;;;16.70;99.90;;;;;;5087594;28;21019;-74
2023/08/27 01:24:13;;;;;;;9.33;8.30;;;16.80;99.90;;;;;;5087807;28;20638;-74
2023/08/27 01:26:46;;;;;;;8.97;7.70;;;16.80;99.90;;;;;;5087939;28;20750;-74
2023/08/27 01:29:24;;;;;;;11.40;7.83;;;16.90;99.90;;;;;;5087617;28;20810;-74
2023/08/27 01:32:06;;;;;;;8.70;7.80;;;16.90;99.90;;;;;;5086784;28;20632;-80
2023/08/27 01:34:37;;;;;;;9.00;7.50;;;16.90;99.90;;;;;;5086898;28;20632;-81
2023/08/27 01:37:10;;;;;;;8.60;7.30;;;17.10;99.90;;;;;;5087636;28;20652;-80
2023/08/27 01:39:37;;;;;;;9.40;7.60;;;17.00;99.90;;;;;;5087123;28;20651;-80
2023/08/27 01:42:05;;;;;;;8.50;7.13;;;17.00;99.90;;;;;;5086126;28;20763;-81
2023/08/27 01:44:32;;;;;;;7.67;6.93;;;16.90;99.90;;;;;;5086729;28;21619;-81
2023/08/27 01:47:03;;;;;;;12.07;9.70;;;16.90;99.90;;;;;;5088435;28;20632;-80
2023/08/27 01:49:30;;;;;;;9.53;7.60;;;17.00;99.90;;;;;;5085971;28;20770;-81
2023/08/27 01:51:56;;;;;;;8.80;7.90;;;16.90;99.90;;;;;;5087402;28;21033;-79
2023/08/27 01:54:25;;;;;;;9.03;7.70;;;16.90;99.90;;;;;;5087474;28;20631;-81
2023/08/27 01:56:51;;;;;;;10.53;8.73;;;16.90;99.90;;;;;;5087490;28;21130;-81
2023/08/27 01:59:18;;;;;;;9.23;7.90;;;17.00;99.90;;;;;;5086690;28;20737;-80
2023/08/27 02:01:45;;;;;;;15.30;8.03;;;17.00;99.90;;;;;;5087090;28;20720;-81
2023/08/27 02:04:12;;;;;;;8.87;7.63;;;17.00;99.90;;;;;;5087056;28;20724;-81
2023/08/27 02:06:39;;;;;;;8.70;7.60;;;16.90;99.90;;;;;;5086915;28;21304;-81
2023/08/27 02:09:06;;;;;;;8.93;7.87;;;16.90;99.90;;;;;;5087238;28;21507;-80
2023/08/27 02:11:34;;;;;;;8.53;7.73;;;16.90;99.90;;;;;;5087307;28;20685;-81
2023/08/27 02:14:04;;;;;;;8.67;7.77;;;16.80;99.90;;;;;;5085741;28;20616;-80
2023/08/27 02:16:35;;;;;;;9.00;8.07;;;16.80;99.90;;;;;;5087151;28;21204;-81
2023/08/27 02:19:03;;;;;;;7.70;6.87;;;16.80;99.90;;;;;;5085722;28;20623;-80
2023/08/27 02:21:30;;;;;;;10.30;8.07;;;16.80;99.90;;;;;;5086711;28;21757;-80
2023/08/27 02:23:58;;;;;;;8.73;7.60;;;16.80;99.90;;;;;;5087180;28;20750;-81
2023/08/27 02:26:26;;;;;;;10.23;7.70;;;16.80;99.90;;;;;;5087023;28;20616;-82
2023/08/27 02:28:55;;;;;;;8.27;7.40;;;16.80;99.90;;;;;;5086272;28;20682;-82
2023/08/27 02:31:23;;;;;;;7.40;6.70;;;16.80;99.90;;;;;;5086534;28;21367;-81
2023/08/27 02:33:51;;;;;;;8.90;8.00;;;16.90;99.90;;;;;;5086985;28;21127;-80
2023/08/27 02:36:18;;;;;;;9.77;8.63;;;16.80;99.90;;;;;;5087162;28;20728;-81
2023/08/27 02:38:46;;;;;;;8.90;8.00;;;16.70;99.90;;;;;;5086191;28;20620;-81
2023/08/27 02:41:14;;;;;;;11.80;6.90;;;16.80;99.90;;;;;;5086637;28;21133;-81
2023/08/27 02:43:43;;;;;;;11.43;7.83;;;16.80;99.90;;;;;;5087388;28;20647;-81
2023/08/27 02:46:13;;;;;;;9.80;7.33;;;17.00;99.90;;;;;;5087365;28;21626;-81
2023/08/27 02:48:40;;;;;;;9.43;8.53;;;16.90;99.90;;;;;;5086922;28;20697;-81
2023/08/27 02:51:07;;;;;;;8.60;7.80;;;17.10;99.90;;;;;;5086577;28;20612;-80
2023/08/27 02:53:34;;;;;;;8.10;7.10;;;17.00;99.90;;;;;;5086508;28;21356;-81
2023/08/27 02:56:01;;;;;;;8.23;6.90;;;17.00;99.90;;;;;;5087832;28;20715;-80
2023/08/27 02:58:28;;;;;;;8.90;7.83;;;17.00;99.90;;;;;;5086504;28;20648;-81
2023/08/27 03:00:55;;;;;;;8.53;7.53;;;16.90;99.90;;;;;;5085826;28;20790;-81
2023/08/27 03:03:23;;;;;;;9.00;7.13;;;16.90;99.90;;;;;;5085228;28;20733;-81
2023/08/27 03:05:50;;;;;;;7.40;6.67;;;16.80;99.90;;;;;;5086834;28;20701;-81
2023/08/27 03:08:16;;;;;;;7.70;6.23;;;16.80;99.90;;;;;;5086635;28;20639;-81
2023/08/27 03:10:43;;;;;;;7.27;6.50;;;16.90;99.90;;;;;;5086565;28;21010;-81
2023/08/27 03:13:12;;;;;;;6.77;6.07;;;16.80;99.90;;;;;;5085539;28;20655;-81
2023/08/27 03:15:39;;;;;;;6.53;5.40;;;16.90;99.90;;;;;;5085901;28;21237;-81
2023/08/27 03:18:07;;;;;;;7.70;6.80;;;16.90;99.90;;;;;;5085858;28;20635;-81
2023/08/27 03:20:35;;;;;;;6.97;6.37;;;17.00;99.90;;;;;;5086268;28;20660;-80
2023/08/27 03:23:02;;;;;;;7.77;6.70;;;17.10;99.90;;;;;;5086806;28;20624;-81
2023/08/27 03:25:29;;;;;;;6.43;5.37;;;17.20;99.90;;;;;;5085997;28;20627;-81
2023/08/27 03:27:55;;;;;;;7.50;6.80;;;17.20;99.90;;;;;;5087099;28;20628;-81
2023/08/27 03:30:22;;;;;;;6.90;6.20;;;16.90;99.90;;;;;;5085569;28;20620;-81
2023/08/27 03:32:49;;;;;;;6.93;6.23;;;16.90;99.90;;;;;;5086530;28;20616;-81
2023/08/27 03:35:17;;;;;;;6.17;5.60;;;16.80;99.90;;;;;;5090092;28;20750;-82
2023/08/27 03:37:45;;;;;;;6.70;6.10;;;16.80;99.90;;;;;;5090210;28;20640;-81
2023/08/27 03:40:12;;;;;;;7.90;6.50;;;16.80;99.90;;;;;;5089690;28;20645;-81
2023/08/27 03:42:39;;;;;;;8.53;7.33;;;16.90;99.90;;;;;;5089986;28;20629;-81
2023/08/27 03:45:07;;;;;;;7.53;6.73;;;17.00;99.90;;;;;;5089251;28;20641;-80
2023/08/27 03:47:36;;;;;;;5.77;5.17;;;16.90;99.90;;;;;;5089448;28;20662;-81
2023/08/27 03:50:04;;;;;;;7.40;5.67;;;16.80;99.90;;;;;;5088935;28;20711;-81
2023/08/27 03:52:34;;;;;;;5.80;5.10;;;16.70;99.90;;;;;;5089369;28;20721;-81
2023/08/27 03:55:03;;;;;;;5.03;4.57;;;16.70;99.90;;;;;;5088873;28;20939;-82
2023/08/27 03:57:30;;;;;;;5.30;4.80;;;16.80;99.90;;;;;;5088682;28;20625;-81
2023/08/27 03:59:57;;;;;;;4.90;4.40;;;16.80;99.90;;;;;;5088718;28;20684;-80
2023/08/27 04:02:24;;;;;;;5.80;5.27;;;16.90;99.90;;;;;;5089401;28;21424;-81
2023/08/27 04:04:54;;;;;;;5.40;4.80;;;16.80;99.90;;;;;;5088558;28;20668;-81
2023/08/27 04:07:23;;;;;;;5.33;4.80;;;16.80;99.90;;;;;;5089716;28;21193;-81
2023/08/27 04:09:52;;;;;;;4.50;4.10;;;16.80;99.90;;;;;;5087505;28;20627;-81
2023/08/27 04:12:23;;;;;;;5.77;4.43;;;16.80;99.90;;;;;;5089029;28;20739;-83
2023/08/27 04:14:50;;;;;;;5.10;4.60;;;16.90;99.90;;;;;;5089251;28;20613;-81
2023/08/27 04:17:17;;;;;;;4.20;3.80;;;16.70;99.90;;;;;;5088541;28;20636;-81
2023/08/27 04:19:43;;;;;;;6.87;3.63;;;16.70;99.90;;;;;;5087839;28;20632;-81
2023/08/27 04:22:14;;;;;;;5.00;4.60;;;16.70;99.90;;;;;;5088394;28;20628;-82
2023/08/27 04:24:42;;;;;;;7.57;4.67;;;16.70;99.90;;;;;;5088832;28;20635;-82
2023/08/27 04:27:10;;;;;;;3.97;3.63;;;16.70;99.90;;;;;;5089167;28;21226;-81
2023/08/27 04:29:38;;;;;;;5.57;4.10;;;16.70;99.90;;;;;;5088106;28;20635;-81
2023/08/27 04:32:05;;;;;;;4.63;3.90;;;16.70;99.90;;;;;;5088537;28;20627;-81
2023/08/27 04:34:36;;;;;;;6.23;4.00;;;16.60;99.90;;;;;;5088799;28;20631;-82
2023/08/27 04:37:03;;;;;;;4.80;4.40;;;16.70;99.90;;;;;;5089705;28;20638;-81
2023/08/27 04:39:30;;;;;;;5.23;4.70;;;16.60;99.90;;;;;;5086914;28;21272;-81
2023/08/27 04:41:58;;;;;;;5.23;4.53;;;16.60;99.90;;;;;;5087508;28;20827;-81
2023/08/27 04:44:26;;;;;;;4.70;4.30;;;16.60;99.90;;;;;;5087968;28;20808;-81
2023/08/27 04:46:55;;;;;;;3.97;3.63;;;16.50;99.90;;;;;;5088907;28;20627;-81
2023/08/27 04:49:22;;;;;;;5.00;4.10;;;16.30;99.90;;;;;;5087704;28;21188;-82
2023/08/27 04:51:49;;;;;;;6.07;4.10;;;16.50;99.90;;;;;;5087099;28;21195;-81
2023/08/27 04:54:15;;;;;;;4.50;4.10;;;16.50;99.90;;;;;;5088143;28;20620;-82
2023/08/27 04:56:51;;;;;;;5.43;4.80;;;16.50;99.90;;;;;;5087883;28;21094;-81
2023/08/27 04:59:21;;;;;;;4.70;3.63;;;16.40;99.90;;;;;;5088197;28;20612;-82
2023/08/27 05:01:51;;;;;;;4.43;4.07;;;16.50;99.90;;;;;;5087906;28;21010;-82
2023/08/27 05:04:20;;;;;;;5.67;4.23;;;16.50;99.90;;;;;;5088582;28;20980;-81
2023/08/27 05:06:46;;;;;;;7.17;4.30;;;16.60;99.90;;;;;;5088107;28;20627;-78
2023/08/27 05:09:14;;;;;;;4.40;4.00;;;16.60;99.90;;;;;;5088231;28;20646;-78
2023/08/27 05:11:40;;;;;;;7.30;5.53;;;16.50;99.90;;;;;;5088658;28;21281;-77
2023/08/27 05:14:07;;;;;;;4.83;4.33;;;16.30;99.90;;;;;;5088284;28;20656;-78
2023/08/27 05:16:35;;;;;;;5.03;4.53;;;16.30;99.90;;;;;;5087494;28;20633;-75
2023/08/27 05:19:02;;;;;;;4.27;3.87;;;16.40;99.90;;;;;;5085026;28;20629;-75
2023/08/27 05:21:30;;;;;;;4.50;4.00;;;16.40;99.90;;;;;;5086270;28;20656;-76
2023/08/27 05:23:57;;;;;;;5.30;4.40;;;16.40;99.90;;;;;;5089084;28;20617;-76
2023/08/27 05:26:24;;;;;;;3.80;3.50;;;16.40;99.90;;;;;;5088180;28;20638;-74
2023/08/27 05:28:50;;;;;;;3.60;3.30;;;16.40;99.90;;;;;;5087391;28;20682;-76
2023/08/27 05:31:17;;;;;;;4.67;3.60;;;16.40;99.90;;;;;;5087882;28;20623;-75
2023/08/27 05:33:44;;;;;;;4.23;3.73;;;16.50;99.90;;;;;;5087916;28;21139;-77
2023/08/27 05:36:11;;;;;;;4.03;3.40;;;16.50;99.90;;;;;;5088357;28;20646;-81
2023/08/27 05:38:39;;;;;;;2.87;2.60;;;16.50;99.90;;;;;;5087769;28;20729;-82
2023/08/27 05:41:06;;;;;;;3.47;3.17;;;16.50;99.90;;;;;;5086601;28;20668;-82
2023/08/27 05:43:33;;;;;;;3.83;3.53;;;16.60;99.90;;;;;;5088197;28;20629;-81
2023/08/27 05:46:00;;;;;;;2.60;2.40;;;16.60;99.90;;;;;;5087993;28;20644;-81
2023/08/27 05:48:26;;;;;;;4.97;2.90;;;16.60;99.90;;;;;;5087632;28;20640;-79
2023/08/27 05:50:53;;;;;;;3.40;2.87;;;16.60;99.90;;;;;;5086762;28;20792;-85
2023/08/27 05:53:20;;;;;;;3.00;2.80;;;16.70;99.90;;;;;;5086508;28;20621;-80
2023/08/27 05:55:48;;;;;;;3.27;2.97;;;16.80;99.90;;;;;;5086320;28;20617;-85
2023/08/27 05:58:15;;;;;;;2.40;2.20;;;16.60;99.90;;;;;;5085177;28;20721;-82
2023/08/27 06:00:42;;;;;;;2.70;2.43;;;16.60;99.90;;;;;;5085992;28;21242;-87
2023/08/27 06:03:09;;;;;;;3.20;2.60;;;16.70;99.90;;;;;;5087201;28;20624;-82
2023/08/27 06:05:36;;;;;;;1.57;1.47;;;16.90;99.90;;;;;;5087776;28;20724;-82
2023/08/27 06:08:04;;;;;;;2.97;2.53;;;16.80;99.90;;;;;;5087371;28;20985;-79
2023/08/27 06:10:30;;;;;;;1.80;1.70;;;16.80;99.90;;;;;;5086279;28;20632;-76
2023/08/27 06:12:59;;;;;;;2.50;2.00;;;16.90;99.90;;;;;;5087592;28;20621;-76
2023/08/27 06:15:27;;;;;;;3.03;2.00;;;16.90;99.90;;;;;;5088190;28;20625;-82
2023/08/27 06:17:54;;;;;;;3.07;2.77;;;16.80;99.90;;;;;;5086799;28;21205;-79
2023/08/27 06:20:21;;;;;;;2.57;2.37;;;16.80;99.90;;;;;;5086312;28;20625;-79
2023/08/27 06:22:48;;;;;;;1.97;1.87;;;16.70;99.90;;;;;;5085472;28;20638;-78
2023/08/27 06:25:15;;;;;;;2.30;2.10;;;16.70;99.90;;;;;;5086821;28;21181;-79
2023/08/27 06:27:42;;;;;;;2.47;2.30;;;16.80;99.90;;;;;;5086520;28;20673;-79
2023/08/27 06:30:10;;;;;;;2.03;1.87;;;16.90;99.90;;;;;;5087172;28;20626;-79
2023/08/27 06:32:37;;;;;;;2.57;2.20;;;17.00;99.90;;;;;;5087277;28;20643;-79
2023/08/27 06:35:04;;;;;;;1.80;1.70;;;17.00;99.90;;;;;;5087441;28;20628;-78
2023/08/27 06:37:34;;;;;;;2.50;2.30;;;17.10;99.90;;;;;;5087746;28;20633;-79
2023/08/27 06:40:00;;;;;;;2.60;2.40;;;17.00;99.90;;;;;;5086421;28;20632;-79
2023/08/27 06:42:27;;;;;;;2.93;2.60;;;17.00;99.90;;;;;;5086497;28;20722;-79
2023/08/27 06:44:54;;;;;;;3.53;3.20;;;17.10;99.90;;;;;;5085967;28;21054;-79
2023/08/27 06:47:22;;;;;;;2.87;2.10;;;17.10;99.90;;;;;;5085471;28;20843;-81
2023/08/27 06:49:50;;;;;;;2.37;2.17;;;17.30;99.90;;;;;;5086367;28;20985;-80
2023/08/27 06:52:17;;;;;;;2.50;2.20;;;17.20;99.90;;;;;;5085575;28;20651;-80
2023/08/27 06:54:45;;;;;;;1.50;1.40;;;17.20;99.90;;;;;;5086624;28;20717;-80
2023/08/27 06:57:11;;;;;;;2.20;2.00;;;17.20;99.90;;;;;;5086712;28;20658;-79
2023/08/27 06:59:38;;;;;;;2.13;1.93;;;17.20;99.90;;;;;;5087296;28;21041;-80
2023/08/27 07:02:05;;;;;;;1.77;1.67;;;17.30;99.90;;;;;;5087486;28;20658;-78
2023/08/27 07:04:34;;;;;;;2.50;1.83;;;17.30;99.90;;;;;;5087385;28;20731;-78
2023/08/27 07:07:00;;;;;;;2.10;1.70;;;17.30;99.90;;;;;;5086538;28;20732;-78
2023/08/27 07:09:27;;;;;;;2.63;2.33;;;17.30;99.90;;;;;;5085559;28;20640;-79
2023/08/27 07:11:54;;;;;;;2.07;1.87;;;17.40;99.90;;;;;;5085394;28;20720;-78
2023/08/27 07:14:21;;;;;;;2.13;1.93;;;17.40;99.90;;;;;;5085432;28;20616;-78
2023/08/27 07:16:48;;;;;;;2.57;1.90;;;17.50;99.90;;;;;;5085949;28;20722;-78
2023/08/27 07:19:14;;;;;;;2.57;2.33;;;17.30;99.90;;;;;;5084020;28;21206;-77
2023/08/27 07:21:43;;;;;;;3.03;2.43;;;17.50;99.90;;;;;;5085664;28;20652;-79
2023/08/27 07:24:13;;;;;;;3.00;2.67;;;17.50;99.90;;;;;;5086360;28;20979;-79
2023/08/27 07:26:40;;;;;;;2.60;1.80;;;17.50;99.90;;;;;;5085989;28;20624;-78
2023/08/27 07:29:07;;;;;;;3.40;1.77;;;17.50;99.90;;;;;;5086586;28;20657;-79
2023/08/27 07:31:36;;;;;;;1.90;1.80;;;17.50;99.90;;;;;;5086561;28;21069;-79
2023/08/27 07:34:03;;;;;;;2.60;2.20;;;17.50;99.90;;;;;;5085694;28;20627;-79
2023/08/27 07:36:30;;;;;;;1.97;1.67;;;17.50;99.90;;;;;;5086794;28;20628;-80
2023/08/27 07:38:58;;;;;;;2.60;2.40;;;17.60;99.90;;;;;;5085612;28;20978;-78
2023/08/27 07:41:25;;;;;;;1.10;1.10;;;17.70;99.90;;;;;;5084574;28;20669;-78
2023/08/27 07:43:52;;;;;;;2.57;1.90;;;17.70;99.90;;;;;;5085196;28;20735;-78
2023/08/27 07:46:19;;;;;;;1.60;1.50;;;17.70;99.90;;;;;;5086012;28;20663;-78
2023/08/27 07:48:46;;;;;;;1.70;1.60;;;17.60;99.90;;;;;;5086187;28;20628;-79
2023/08/27 07:51:15;;;;;;;2.00;1.60;;;17.60;99.90;;;;;;5085712;28;21271;-79
2023/08/27 07:53:44;;;;;;;1.67;1.50;;;17.60;99.90;;;;;;5085867;28;20637;-78
2023/08/27 07:56:12;;;;;;;1.57;1.47;;;17.50;99.90;;;;;;5085986;28;20623;-77
2023/08/27 07:58:39;;;;;;;1.37;1.17;;;17.50;99.90;;;;;;5085937;28;20634;-79
2023/08/27 08:01:06;;;;;;;1.20;1.10;;;17.40;99.90;;;;;;5084643;28;20652;-79
2023/08/27 08:03:33;;;;;;;1.43;1.33;;;17.40;99.90;;;;;;5086228;28;20711;-79
2023/08/27 08:05:59;;;;;;;1.60;1.50;;;17.40;99.90;;;;;;5080555;28;21203;-79
2023/08/27 08:08:26;;;;;;;1.40;1.30;;;17.40;99.90;;;;;;5083491;28;21046;-79
2023/08/27 08:10:55;;;;;;;1.27;1.17;;;17.40;99.90;;;;;;5082672;28;20635;-79
2023/08/27 08:13:24;;;;;;;2.60;1.40;;;17.30;99.90;;;;;;5085984;28;20787;-79
2023/08/27 08:15:50;;;;;;;1.50;1.40;;;17.40;99.90;;;;;;5085241;28;20621;-79
2023/08/27 08:18:17;;;;;;;2.07;1.80;;;17.40;99.90;;;;;;5084692;28;21219;-79
2023/08/27 08:20:44;;;;;;;1.30;1.20;;;17.30;99.90;;;;;;5086052;28;21342;-79
2023/08/27 08:23:11;;;;;;;1.80;1.10;;;17.30;99.90;;;;;;5089285;28;21267;-78
2023/08/27 08:25:38;;;;;;;4.23;1.10;;;17.30;99.90;;;;;;5089692;28;20629;-78
2023/08/27 08:28:06;;;;;;;1.47;1.07;;;17.50;99.90;;;;;;5089046;28;20626;-78
2023/08/27 08:30:34;;;;;;;1.57;1.10;;;17.60;99.90;;;;;;5088912;28;20617;-78
2023/08/27 08:33:01;;;;;;;1.10;1.03;;;17.50;99.90;;;;;;5087423;28;20731;-78
2023/08/27 08:35:27;;;;;;;1.10;1.00;;;17.60;99.90;;;;;;5088892;28;20616;-78
2023/08/27 08:37:54;;;;;;;1.23;0.90;;;17.60;99.90;;;;;;5089068;28;21829;-78
2023/08/27 08:40:21;;;;;;;1.43;0.93;;;17.70;99.90;;;;;;5088797;28;21767;-79
2023/08/27 08:42:52;;;;;;;0.97;0.87;;;17.60;99.90;;;;;;5088970;28;20660;-78
2023/08/27 08:45:27;;;;;;;1.07;0.97;;;17.50;99.90;;;;;;5085156;28;20627;-78
2023/08/27 08:47:57;;;;;;;1.07;0.97;;;17.60;99.90;;;;;;5088597;28;20681;-78
2023/08/27 08:50:25;;;;;;;1.00;0.80;;;17.70;99.90;;;;;;5088698;28;20638;-79
2023/08/27 08:52:54;;;;;;;1.40;1.30;;;17.90;99.90;;;;;;5089239;28;21080;-78
2023/08/27 08:55:26;;;;;;;2.10;1.00;;;18.00;99.90;;;;;;5089186;28;20628;-79
2023/08/27 08:57:56;;;;;;;1.57;1.10;;;17.90;99.90;;;;;;5088238;28;22086;-79
2023/08/27 09:00:23;;;;;;;0.87;0.87;;;18.00;99.90;;;;;;5088783;28;20608;-79
2023/08/27 09:02:51;;;;;;;1.10;0.90;;;18.00;99.90;;;;;;5088868;28;20661;-79
2023/08/27 09:05:20;;;;;;;1.10;1.00;;;18.10;99.90;;;;;;5087959;28;20790;-79
2023/08/27 09:07:52;;;;;;;1.10;1.00;;;18.00;99.90;;;;;;5087422;28;20648;-79
2023/08/27 09:10:26;;;;;;;0.73;0.73;;;18.10;99.90;;;;;;5087116;28;20649;-79
2023/08/27 09:12:56;;;;;;;2.00;1.00;;;18.20;99.90;;;;;;5087518;28;20632;-79
2023/08/27 09:15:23;;;;;;;0.90;0.90;;;17.90;99.90;;;;;;5088093;28;20717;-79
2023/08/27 09:17:50;;;;;;;1.63;1.53;;;18.00;99.90;;;;;;5089074;28;20659;-78
2023/08/27 09:20:18;;;;;;;1.30;1.20;;;18.20;99.90;;;;;;5088741;28;20716;-78
2023/08/27 09:22:46;;;;;;;2.13;1.60;;;18.10;99.90;;;;;;5087676;28;21003;-80
2023/08/27 09:25:14;;;;;;;1.73;1.30;;;18.10;99.90;;;;;;5088535;28;21157;-78
2023/08/27 09:27:41;;;;;;;9.30;1.67;;;18.30;99.90;;;;;;5088889;28;21260;-79
2023/08/27 09:30:10;;;;;;;1.23;1.20;;;18.30;99.90;;;;;;5087820;28;20712;-79
2023/08/27 09:32:36;;;;;;;1.50;1.00;;;18.50;99.90;;;;;;5086657;28;20727;-79
2023/08/27 09:35:05;;;;;;;1.07;1.03;;;18.70;99.90;;;;;;5086003;28;20629;-78
2023/08/27 09:37:39;;;;;;;1.27;0.97;;;18.80;99.90;;;;;;5087029;28;20677;-79
2023/08/27 09:40:09;;;;;;;1.10;1.00;;;18.90;99.90;;;;;;5087560;28;20621;-79
2023/08/27 09:42:36;;;;;;;1.20;1.10;;;19.10;99.90;;;;;;5087161;28;21327;-79
2023/08/27 09:45:03;;;;;;;0.80;0.70;;;19.10;99.90;;;;;;5087565;28;20629;-79
2023/08/27 09:47:31;;;;;;;1.57;1.47;;;19.10;99.90;;;;;;5086698;28;20624;-79
2023/08/27 09:49:58;;;;;;;0.93;0.80;;;19.10;99.90;;;;;;5086894;28;20613;-78
2023/08/27 09:52:26;;;;;;;2.97;1.30;;;19.20;99.90;;;;;;5087970;28;20636;-79
2023/08/27 09:54:53;;;;;;;1.37;1.27;;;19.20;99.90;;;;;;5088075;28;20645;-79
2023/08/27 09:57:22;;;;;;;2.03;1.30;;;19.20;99.90;;;;;;5087542;28;20625;-78
2023/08/27 09:59:49;;;;;;;1.30;1.10;;;19.20;99.90;;;;;;5087403;28;20712;-79
2023/08/27 10:02:16;;;;;;;1.23;1.13;;;19.10;99.90;;;;;;5087721;28;20666;-79
2023/08/27 10:04:50;;;;;;;1.30;1.23;;;19.10;99.90;;;;;;5088437;28;20617;-79
2023/08/27 10:07:17;;;;;;;1.33;1.23;;;19.10;99.90;;;;;;5088067;28;20629;-79
2023/08/27 10:09:44;;;;;;;2.20;1.10;;;19.00;99.90;;;;;;5086799;28;20759;-78
2023/08/27 10:12:12;;;;;;;1.40;1.30;;;19.00;99.90;;;;;;5088065;28;20648;-78
2023/08/27 10:14:41;;;;;;;1.20;0.93;;;19.00;99.90;;;;;;5087409;28;20637;-79
2023/08/27 10:17:10;;;;;;;1.83;1.30;;;19.00;99.90;;;;;;5086896;28;21174;-78
2023/08/27 10:19:37;;;;;;;1.90;1.40;;;19.00;99.90;;;;;;5087255;28;20640;-79
2023/08/27 10:22:05;;;;;;;1.73;1.20;;;19.20;99.90;;;;;;5088021;28;20693;-78
2023/08/27 10:24:33;;;;;;;1.10;1.00;;;19.40;99.90;;;;;;5086477;28;20660;-79
2023/08/27 10:27:01;;;;;;;1.40;1.17;;;19.50;99.90;;;;;;5086963;28;20633;-79
2023/08/27 10:29:29;;;;;;;1.30;1.20;;;19.50;99.90;;;;;;5086725;28;20630;-79
2023/08/27 10:31:58;;;;;;;1.53;1.07;;;19.50;99.90;;;;;;5086674;28;20638;-79
2023/08/27 10:34:28;;;;;;;2.87;1.40;;;19.60;99.90;;;;;;5087501;28;20631;-79
2023/08/27 10:36:59;;;;;;;1.20;1.10;;;19.70;99.90;;;;;;5087297;28;20631;-79
2023/08/27 10:39:30;;;;;;;1.40;1.07;;;19.90;99.90;;;;;;5086801;28;21631;-79
2023/08/27 10:41:57;;;;;;;1.47;1.37;;;19.80;99.90;;;;;;5087586;28;20690;-78
2023/08/27 10:44:24;;;;;;;1.77;1.67;;;19.70;99.90;;;;;;5086414;28;20663;-78
2023/08/27 10:47:13;;;;;;;1.30;1.20;;;19.70;99.90;;;;;;5087284;28;20635;-79
2023/08/27 10:49:41;;;;;;;1.33;1.23;;;19.70;99.90;;;;;;5086222;28;20631;-78
2023/08/27 10:52:17;;;;;;;5.80;1.30;;;19.80;99.90;;;;;;5087543;28;21196;-78
2023/08/27 10:54:46;;;;;;;2.23;1.10;;;19.70;99.90;;;;;;5086931;28;20627;-79
2023/08/27 10:57:21;;;;;;;1.33;1.20;;;19.70;99.90;;;;;;5087657;28;20631;-78
2023/08/27 10:59:48;;;;;;;1.37;1.27;;;19.90;99.90;;;;;;5085479;28;20631;-79
2023/08/27 11:02:17;;;;;;;1.40;1.30;;;20.00;99.90;;;;;;5086781;28;20658;-79
2023/08/27 11:04:51;;;;;;;0.93;0.90;;;20.10;99.90;;;;;;5087223;28;20632;-79
2023/08/27 11:07:19;;;;;;;1.40;1.20;;;20.00;99.90;;;;;;5085404;28;20664;-78
2023/08/27 11:09:48;;;;;;;1.20;1.10;;;19.90;99.90;;;;;;5085703;28;20645;-79
2023/08/27 11:12:24;;;;;;;1.13;0.93;;;19.80;99.90;;;;;;5086051;28;20630;-78
2023/08/27 11:14:51;;;;;;;0.80;0.80;;;19.90;99.90;;;;;;5087145;28;20727;-79
2023/08/27 11:17:27;;;;;;;1.20;1.07;;;20.20;99.90;;;;;;5087077;28;20680;-78
2023/08/27 11:19:55;;;;;;;1.53;1.30;;;20.30;99.90;;;;;;5086331;28;20633;-78
2023/08/27 11:22:23;;;;;;;1.57;1.47;;;20.30;99.90;;;;;;5087279;28;20657;-78
2023/08/27 11:24:52;;;;;;;1.40;1.30;;;20.30;99.90;;;;;;5085000;28;21170;-79
2023/08/27 11:27:20;;;;;;;1.80;1.60;;;20.10;99.90;;;;;;5085028;28;21251;-78
2023/08/27 11:29:49;;;;;;;1.47;1.37;;;20.10;99.90;;;;;;5085653;28;20634;-79
2023/08/27 11:32:16;;;;;;;1.30;1.20;;;20.20;99.90;;;;;;5086417;28;20631;-79
2023/08/27 11:34:46;;;;;;;0.90;0.90;;;20.20;99.90;;;;;;5087216;28;20620;-79
2023/08/27 11:37:13;;;;;;;1.57;1.47;;;20.00;99.90;;;;;;5087241;28;20627;-78
2023/08/27 11:39:41;;;;;;;1.73;1.63;;;20.00;99.90;;;;;;5085290;28;21194;-79
2023/08/27 11:42:12;;;;;;;1.83;1.13;;;20.00;99.90;;;;;;5086868;28;20634;-79
2023/08/27 11:44:52;;;;;;;3.60;1.40;;;20.00;99.90;;;;;;5086488;28;21265;-78
2023/08/27 11:47:20;;;;;;;1.20;1.10;;;19.90;99.90;;;;;;5086904;28;21111;-79
2023/08/27 11:49:50;;;;;;;2.30;1.10;;;20.10;99.90;;;;;;5085727;28;20628;-78
2023/08/27 11:52:17;;;;;;;1.47;1.37;;;20.20;99.90;;;;;;5084991;28;21283;-78
2023/08/27 11:54:46;;;;;;;1.20;1.03;;;20.20;99.90;;;;;;5087641;28;20628;-79
2023/08/27 11:57:14;;;;;;;1.63;1.27;;;20.10;99.90;;;;;;5089385;28;20692;-81
2023/08/27 11:59:41;;;;;;;0.97;0.97;;;20.20;99.90;;;;;;5090060;28;20633;-80
2023/08/27 12:02:11;;;;;;;1.27;1.17;;;20.20;99.90;;;;;;5089835;28;20717;-79
2023/08/27 12:04:39;;;;;;;1.53;1.43;;;20.10;99.90;;;;;;5090117;28;20646;-80
2023/08/27 12:07:08;;;;;;;1.87;1.77;;;20.10;99.90;;;;;;5089807;28;21192;-79
2023/08/27 12:09:35;;;;;;;3.20;1.20;;;20.10;99.90;;;;;;5089017;28;20624;-80
2023/08/27 12:12:03;;;;;;;1.30;1.20;;;20.20;99.90;;;;;;5088797;28;20637;-79
2023/08/27 12:14:30;;;;;;;1.10;1.00;;;20.30;99.90;;;;;;5089496;28;20628;-79
2023/08/27 12:17:07;;;;;;;1.90;1.23;;;20.30;99.90;;;;;;5087282;28;21195;-79
2023/08/27 12:19:34;;;;;;;1.70;1.60;;;20.30;99.90;;;;;;5089060;28;21075;-80
2023/08/27 12:22:01;;;;;;;1.80;1.37;;;20.20;99.90;;;;;;5089397;28;20640;-80
2023/08/27 12:24:33;;;;;;;2.33;1.50;;;20.20;99.90;;;;;;5089073;28;20699;-80
2023/08/27 12:27:02;;;;;;;1.73;1.63;;;20.20;99.90;;;;;;5089290;28;21157;-80
2023/08/27 12:29:30;;;;;;;1.40;1.03;;;20.10;99.30;;;;;;5089204;28;20629;-78
2023/08/27 12:31:58;;;;;;;1.63;1.53;;;20.10;99.90;;;;;;5088921;28;20642;-78
2023/08/27 12:34:35;;;;;;;2.70;1.10;;;20.20;99.90;;;;;;5089957;28;20631;-79
2023/08/27 12:37:03;;;;;;;2.60;1.50;;;20.30;99.90;;;;;;5089097;28;20719;-78
2023/08/27 12:39:32;;;;;;;1.30;1.20;;;20.30;99.90;;;;;;5088513;28;20635;-77
2023/08/27 12:41:59;;;;;;;1.70;1.60;;;20.40;99.90;;;;;;5088807;28;21209;-78
2023/08/27 12:44:26;;;;;;;1.20;1.13;;;20.30;99.90;;;;;;5088635;28;20659;-79
2023/08/27 12:46:53;;;;;;;1.30;1.20;;;20.40;99.90;;;;;;5088799;28;20618;-78
2023/08/27 12:49:20;;;;;;;1.40;1.30;;;20.30;99.70;;;;;;5088291;28;20642;-77